createdAt,value
2018-02-16T00:01:08.393Z,37.63
2018-02-16T00:03:37.229Z,34.40
2018-02-16T00:06:05.288Z,36.25
2018-02-16T00:08:34.088Z,37.78
2018-02-16T00:11:02.914Z,39.05
2018-02-16T00:13:30.948Z,35.08
2018-02-16T00:15:59.004Z,36.90
2018-02-16T00:18:27.061Z,31.95
2018-02-16T00:20:55.097Z,37.88
2018-02-16T00:23:23.170Z,30.83
2018-02-16T00:25:51.200Z,33.55
2018-02-16T00:28:19.272Z,47.92
2018-02-16T00:30:48.086Z,36.95
2018-02-16T00:33:16.132Z,35.90
2018-02-16T00:35:44.187Z,40.80
2018-02-16T00:38:12.224Z,43.42
2018-02-16T00:40:41.040Z,32.13
2018-02-16T00:43:09.105Z,36.75
2018-02-16T00:45:37.908Z,33.45
2018-02-16T00:48:06.737Z,36.50
2018-02-16T00:50:34.803Z,38.15
2018-02-16T00:53:03.593Z,30.23
2018-02-16T00:55:32.407Z,35.80
2018-02-16T00:58:01.219Z,34.42
2018-02-16T01:00:29.264Z,38.72
2018-02-16T01:02:57.324Z,36.50
2018-02-16T01:05:25.356Z,40.50
2018-02-16T01:07:54.176Z,31.95
2018-02-16T01:10:22.244Z,41.67
2018-02-16T01:12:51.063Z,34.83
2018-02-16T01:15:19.108Z,36.35
2018-02-16T01:17:47.148Z,34.30
2018-02-16T01:20:15.208Z,36.72
2018-02-16T01:22:43.261Z,30.25
2018-02-16T01:25:11.300Z,32.30
2018-02-16T01:27:39.355Z,30.17
2018-02-16T01:30:07.393Z,34.22
2018-02-16T01:32:35.446Z,33.22
2018-02-16T01:35:03.497Z,32.78
2018-02-16T01:37:32.305Z,32.28
2018-02-16T01:40:01.146Z,34.00
2018-02-16T01:42:29.176Z,33.50
2018-02-16T01:44:58.008Z,38.40
2018-02-16T01:47:26.071Z,40.83
2018-02-16T01:50:05.731Z,32.95
2018-02-16T01:52:34.563Z,38.95
2018-02-16T01:55:02.537Z,39.55
2018-02-16T01:57:30.548Z,34.38
2018-02-16T01:59:58.544Z,37.92
2018-02-16T02:02:26.588Z,45.67
2018-02-16T02:04:54.583Z,37.25
2018-02-16T02:07:22.591Z,44.00
2018-02-16T02:09:50.588Z,37.60
2018-02-16T02:12:19.360Z,45.88
2018-02-16T02:14:47.431Z,42.47
2018-02-16T02:17:15.424Z,31.35
2018-02-16T02:19:43.443Z,34.40
2018-02-16T02:22:12.209Z,34.40
2018-02-16T02:24:40.211Z,32.63
2018-02-16T02:27:08.217Z,43.40
2018-02-16T02:29:36.975Z,41.53
2018-02-16T02:32:04.997Z,38.47
2018-02-16T02:34:33.757Z,37.92
2018-02-16T02:37:01.769Z,38.15
2018-02-16T02:39:30.537Z,37.40
2018-02-16T02:41:58.540Z,40.70
2018-02-16T02:44:26.558Z,33.70
2018-02-16T02:46:55.404Z,41.35
2018-02-16T02:49:23.401Z,34.25
2018-02-16T02:51:51.423Z,37.67
2018-02-16T02:54:19.445Z,44.97
2018-02-16T02:56:47.444Z,32.60
2018-02-16T02:59:15.456Z,38.83
2018-02-16T03:01:44.251Z,37.63
2018-02-16T03:04:12.224Z,31.70
2018-02-16T03:06:40.236Z,34.75
2018-02-16T03:09:08.248Z,31.90
2018-02-16T03:11:36.240Z,39.78
2018-02-16T03:14:04.248Z,37.15
2018-02-16T03:16:32.256Z,27.80
2018-02-16T03:19:01.044Z,42.72
2018-02-16T03:21:29.040Z,32.05
2018-02-16T03:23:57.811Z,34.53
2018-02-16T03:26:25.800Z,36.03
2018-02-16T03:28:53.804Z,32.75
2018-02-16T03:31:22.572Z,34.88
2018-02-16T03:33:50.560Z,38.30
2018-02-16T03:36:20.258Z,28.67
2018-02-16T03:38:48.276Z,32.55
2018-02-16T03:41:16.271Z,33.38
2018-02-16T03:43:45.053Z,30.30
2018-02-16T03:46:13.052Z,32.95
2018-02-16T03:48:41.823Z,36.22
2018-02-16T03:51:09.837Z,36.95
2018-02-16T03:53:38.616Z,41.55
2018-02-16T03:56:06.620Z,39.72
2018-02-16T03:58:35.387Z,38.45
2018-02-16T04:01:03.408Z,34.30
2018-02-16T04:03:32.188Z,31.70
2018-02-16T04:06:00.192Z,41.33
2018-02-16T04:08:28.965Z,30.35
2018-02-16T04:10:56.957Z,30.85
2018-02-16T04:13:24.965Z,35.63
2018-02-16T04:15:53.728Z,43.15
2018-02-16T04:18:21.736Z,30.33
2018-02-16T04:20:50.520Z,37.75
2018-02-16T04:23:18.520Z,34.05
2018-02-16T04:25:47.289Z,37.00
2018-02-16T04:28:15.280Z,37.63
2018-02-16T04:30:43.288Z,34.85
2018-02-16T04:33:12.064Z,34.70
2018-02-16T04:35:40.068Z,36.30
2018-02-16T04:38:08.828Z,34.38
2018-02-16T04:40:36.839Z,35.72
2018-02-16T04:43:04.859Z,27.65
2018-02-16T04:45:32.888Z,42.45
2018-02-16T04:48:00.908Z,34.90
2018-02-16T04:50:29.684Z,41.47
2018-02-16T04:52:57.696Z,46.83
2018-02-16T04:55:26.472Z,37.65
2018-02-16T04:57:54.481Z,32.90
2018-02-16T05:00:23.253Z,32.80
2018-02-16T05:02:51.248Z,33.85
2018-02-16T05:05:20.036Z,36.60
2018-02-16T05:07:48.036Z,36.90
2018-02-16T05:10:16.827Z,40.03
2018-02-16T05:12:44.832Z,38.50
2018-02-16T05:15:12.838Z,36.25
2018-02-16T05:17:40.852Z,30.52
2018-02-16T05:20:08.849Z,33.30
2018-02-16T05:22:36.864Z,37.15
2018-02-16T05:25:05.637Z,31.83
2018-02-16T05:27:33.632Z,38.80
2018-02-16T05:30:02.447Z,33.22
2018-02-16T05:32:31.204Z,46.15
2018-02-16T05:34:59.212Z,39.83
2018-02-16T05:37:27.224Z,34.92
2018-02-16T05:39:55.849Z,38.38
2018-02-16T05:42:23.860Z,42.80
2018-02-16T05:44:51.852Z,35.28
2018-02-16T05:47:19.860Z,36.85
2018-02-16T05:49:48.628Z,38.17
2018-02-16T05:52:16.633Z,35.65
2018-02-16T05:54:45.484Z,35.60
2018-02-16T05:57:13.488Z,45.53
2018-02-16T05:59:41.490Z,47.05
2018-02-16T06:02:10.487Z,38.10
2018-02-16T06:04:38.504Z,48.03
2018-02-16T06:07:06.497Z,47.53
2018-02-16T06:09:34.512Z,45.28
2018-02-16T06:12:02.516Z,45.42
2018-02-16T06:14:30.526Z,47.95
2018-02-16T06:16:59.288Z,51.08
2018-02-16T06:19:27.297Z,56.58
2018-02-16T06:21:56.119Z,57.78
2018-02-16T06:24:24.920Z,55.08
2018-02-16T06:26:52.934Z,58.90
2018-02-16T06:29:20.940Z,54.53
2018-02-16T06:31:48.945Z,52.88
2018-02-16T06:34:17.722Z,43.55
2018-02-16T06:36:45.733Z,47.25
2018-02-16T06:39:13.732Z,56.28
2018-02-16T06:41:41.724Z,49.35
2018-02-16T06:44:10.665Z,63.15
2018-02-16T06:46:38.668Z,59.60
2018-02-16T06:49:06.680Z,51.70
2018-02-16T06:51:35.448Z,53.60
2018-02-16T06:54:03.464Z,51.47
2018-02-16T06:56:31.459Z,47.55
2018-02-16T06:58:59.465Z,54.78
2018-02-16T07:01:27.466Z,60.30
2018-02-16T07:03:55.492Z,57.35
2018-02-16T07:06:24.266Z,55.05
2018-02-16T07:08:52.267Z,46.53
2018-02-16T07:11:21.036Z,68.37
2018-02-16T07:13:49.054Z,53.22
2018-02-16T07:16:17.040Z,41.70
2018-02-16T07:18:45.831Z,44.30
2018-02-16T07:21:14.614Z,49.65
2018-02-16T07:23:42.604Z,53.70
2018-02-16T07:26:10.612Z,45.35
2018-02-16T07:28:38.613Z,51.53
2018-02-16T07:31:06.634Z,41.30
2018-02-16T07:33:34.617Z,58.83
2018-02-16T07:36:02.629Z,46.75
2018-02-16T07:38:31.389Z,44.72
2018-02-16T07:40:59.392Z,49.60
2018-02-16T07:43:27.408Z,48.75
2018-02-16T07:45:56.188Z,47.55
2018-02-16T07:48:24.183Z,48.35
2018-02-16T07:50:52.966Z,48.15
2018-02-16T07:53:20.963Z,40.92
2018-02-16T07:55:49.765Z,49.47
2018-02-16T07:58:18.548Z,46.60
2018-02-16T08:00:46.560Z,39.95
2018-02-16T08:03:15.311Z,44.42
2018-02-16T08:05:43.319Z,43.67
2018-02-16T08:08:11.333Z,44.10
2018-02-16T08:10:39.345Z,40.20
2018-02-16T08:13:07.340Z,36.35
2018-02-16T08:15:35.339Z,45.88
2018-02-16T08:18:03.360Z,46.28
2018-02-16T08:20:32.115Z,41.90
2018-02-16T08:23:00.134Z,37.47
2018-02-16T08:25:28.892Z,38.22
2018-02-16T08:27:56.905Z,35.42
2018-02-16T08:30:24.900Z,45.17
2018-02-16T08:32:53.682Z,36.00
2018-02-16T08:35:21.684Z,35.13
2018-02-16T08:37:50.440Z,29.60
2018-02-16T08:40:18.445Z,20.48
2018-02-16T08:42:46.444Z,23.83
2018-02-16T08:45:15.218Z,27.58
2018-02-16T08:47:43.221Z,20.80
2018-02-16T08:50:11.980Z,24.12
2018-02-16T08:52:39.988Z,22.50
2018-02-16T08:55:07.980Z,29.33
2018-02-16T08:57:36.018Z,27.80
2018-02-16T09:00:04.012Z,29.20
2018-02-16T09:02:32.024Z,29.87
2018-02-16T09:05:00.038Z,34.65
2018-02-16T09:07:28.784Z,27.13
2018-02-16T09:09:56.805Z,27.45
2018-02-16T09:12:25.568Z,23.12
2018-02-16T09:14:53.609Z,23.70
2018-02-16T09:17:21.623Z,28.90
2018-02-16T09:19:49.613Z,27.17
2018-02-16T09:22:17.632Z,28.05
2018-02-16T09:24:46.404Z,22.23
2018-02-16T09:27:14.408Z,23.75
2018-02-16T09:29:42.430Z,20.77
2018-02-16T09:32:10.422Z,26.30
2018-02-16T09:34:38.428Z,27.62
2018-02-16T09:37:07.632Z,24.42
2018-02-16T09:39:36.536Z,18.62
2018-02-16T09:42:04.932Z,29.77
2018-02-16T09:44:32.945Z,24.73
2018-02-16T09:47:00.945Z,24.40
2018-02-16T09:49:29.719Z,27.75
2018-02-16T09:51:57.749Z,30.50
2018-02-16T09:54:25.762Z,21.55
2018-02-16T09:56:53.788Z,23.02
2018-02-16T09:59:22.552Z,18.52
2018-02-16T10:01:50.561Z,21.40
2018-02-16T10:04:18.576Z,21.12
2018-02-16T10:06:46.605Z,18.80
2018-02-16T10:09:14.612Z,20.90
2018-02-16T10:11:43.372Z,18.40
2018-02-16T10:14:11.600Z,22.62
2018-02-16T10:16:39.592Z,24.15
2018-02-16T10:19:09.276Z,22.67
2018-02-16T10:21:37.284Z,16.27
2018-02-16T10:24:05.300Z,17.37
2018-02-16T10:26:33.280Z,21.27
2018-02-16T10:29:01.282Z,27.67
2018-02-16T10:31:29.275Z,14.10
2018-02-16T10:33:57.267Z,23.62
2018-02-16T10:36:25.281Z,25.77
2018-02-16T10:38:53.282Z,19.45
2018-02-16T10:41:22.052Z,20.30
2018-02-16T10:43:50.060Z,21.83
2018-02-16T10:46:18.825Z,23.45
2018-02-16T10:48:46.837Z,22.50
2018-02-16T10:51:14.835Z,20.15
2018-02-16T10:53:43.608Z,19.98
2018-02-16T10:56:11.605Z,20.73
2018-02-16T10:58:40.380Z,19.25
2018-02-16T11:01:14.172Z,17.67
2018-02-16T11:03:42.179Z,20.95
2018-02-16T11:06:13.154Z,23.08
2018-02-16T11:08:48.392Z,15.60
2018-02-16T11:11:16.404Z,15.13
2018-02-16T11:13:45.159Z,19.15
2018-02-16T11:16:13.161Z,19.23
2018-02-16T11:18:41.147Z,15.20
2018-02-16T11:21:09.157Z,15.98
2018-02-16T11:23:37.940Z,19.73
2018-02-16T11:26:05.936Z,30.62
2018-02-16T11:28:34.704Z,21.20
2018-02-16T11:31:02.713Z,24.30
2018-02-16T11:33:31.480Z,19.15
2018-02-16T11:35:59.487Z,20.40
2018-02-16T11:38:28.265Z,21.33
2018-02-16T11:40:56.281Z,20.45
2018-02-16T11:43:25.040Z,19.08
2018-02-16T11:45:53.052Z,18.77
2018-02-16T11:48:21.047Z,17.05
2018-02-16T11:50:49.814Z,18.65
2018-02-16T11:53:17.816Z,13.27
2018-02-16T11:55:45.828Z,21.67
2018-02-16T11:58:13.816Z,18.12
2018-02-16T12:00:41.824Z,19.80
2018-02-16T12:03:09.808Z,15.13
2018-02-16T12:05:37.829Z,18.67
2018-02-16T12:08:05.829Z,17.48
2018-02-16T12:10:34.592Z,20.25
2018-02-16T12:13:02.596Z,19.10
2018-02-16T12:15:30.602Z,16.30
2018-02-16T12:17:59.372Z,19.65
2018-02-16T12:20:27.376Z,22.00
2018-02-16T12:22:56.153Z,16.90
2018-02-16T12:25:24.148Z,22.02
2018-02-16T12:27:52.157Z,17.00
2018-02-16T12:30:20.164Z,18.12
2018-02-16T12:32:48.167Z,20.88
2018-02-16T12:35:16.168Z,18.05
2018-02-16T12:37:44.175Z,17.83
2018-02-16T12:40:12.952Z,14.68
2018-02-16T12:42:40.936Z,16.45
2018-02-16T12:45:08.949Z,21.75
2018-02-16T12:47:37.712Z,17.02
2018-02-16T12:50:05.712Z,16.17
2018-02-16T12:52:34.492Z,13.93
2018-02-16T12:55:02.485Z,18.12
2018-02-16T12:57:30.489Z,17.10
2018-02-16T12:59:59.244Z,16.23
2018-02-16T13:02:27.256Z,17.02
2018-02-16T13:04:55.260Z,17.02
2018-02-16T13:07:24.020Z,16.77
2018-02-16T13:09:52.019Z,14.40
2018-02-16T13:12:20.012Z,16.15
2018-02-16T13:14:48.793Z,17.52
2018-02-16T13:17:16.771Z,13.07
2018-02-16T13:19:44.772Z,13.80
2018-02-16T13:22:12.759Z,16.62
2018-02-16T13:24:41.532Z,15.50
2018-02-16T13:27:09.541Z,20.27
2018-02-16T13:29:37.532Z,13.70
2018-02-16T13:32:06.291Z,11.32
2018-02-16T13:34:34.292Z,13.48
2018-02-16T13:37:02.557Z,14.38
2018-02-16T13:39:30.552Z,12.95
2018-02-16T13:41:58.565Z,14.05
2018-02-16T13:44:26.547Z,16.27
2018-02-16T13:46:55.336Z,10.77
2018-02-16T13:49:24.824Z,16.27
2018-02-16T13:51:52.828Z,18.75
2018-02-16T13:54:20.819Z,16.95
2018-02-16T13:56:48.825Z,22.50
2018-02-16T13:59:16.832Z,18.02
2018-02-16T14:01:44.819Z,15.40
2018-02-16T14:04:12.825Z,15.63
2018-02-16T14:06:40.828Z,12.65
2018-02-16T14:09:08.829Z,13.80
2018-02-16T14:11:37.584Z,15.02
2018-02-16T14:14:06.355Z,14.48
2018-02-16T14:16:34.344Z,18.70
2018-02-16T14:19:02.354Z,18.35
2018-02-16T14:21:30.372Z,15.52
2018-02-16T14:23:59.152Z,13.05
2018-02-16T14:26:28.673Z,17.65
2018-02-16T14:28:56.668Z,13.62
2018-02-16T14:31:24.667Z,11.68
2018-02-16T14:33:53.450Z,16.52
2018-02-16T14:36:21.452Z,15.43
2018-02-16T14:38:50.225Z,17.17
2018-02-16T14:41:18.224Z,17.35
2018-02-16T14:43:46.995Z,13.10
2018-02-16T14:46:15.005Z,12.05
2018-02-16T14:48:42.988Z,15.75
2018-02-16T14:51:11.004Z,24.48
2018-02-16T14:53:38.996Z,13.62
2018-02-16T14:56:07.047Z,18.08
2018-02-16T14:58:35.420Z,18.67
2018-02-16T15:01:03.419Z,20.83
2018-02-16T15:03:32.481Z,18.55
2018-02-16T15:06:00.472Z,21.52
2018-02-16T15:08:28.477Z,18.12
2018-02-16T15:10:56.494Z,18.23
2018-02-16T15:13:24.540Z,18.90
2018-02-16T15:15:52.508Z,18.65
2018-02-16T15:18:20.565Z,14.98
2018-02-16T15:20:48.568Z,18.17
2018-02-16T15:23:16.588Z,21.67
2018-02-16T15:25:45.499Z,21.10
2018-02-16T15:28:14.240Z,19.17
2018-02-16T15:30:42.253Z,19.87
2018-02-16T15:33:10.249Z,25.25
2018-02-16T15:35:39.024Z,18.33
2018-02-16T15:38:07.043Z,14.45
2018-02-16T15:40:35.808Z,18.75
2018-02-16T15:43:03.816Z,18.77
2018-02-16T15:45:32.583Z,20.05
2018-02-16T15:48:00.594Z,17.87
2018-02-16T15:50:28.581Z,18.25
2018-02-16T15:52:56.591Z,17.15
2018-02-16T15:55:24.576Z,15.43
2018-02-16T15:57:52.588Z,19.65
2018-02-16T16:00:20.606Z,21.00
2018-02-16T16:02:48.595Z,15.68
2018-02-16T16:05:17.378Z,17.73
2018-02-16T16:07:45.381Z,22.05
2018-02-16T16:10:14.148Z,23.12
2018-02-16T16:12:42.172Z,19.98
2018-02-16T16:15:10.957Z,16.87
2018-02-16T16:17:38.968Z,22.67
2018-02-16T16:20:06.960Z,17.23
2018-02-16T16:22:34.967Z,14.10
2018-02-16T16:25:02.964Z,24.20
2018-02-16T16:27:30.964Z,18.37
2018-02-16T16:29:58.969Z,32.80
2018-02-16T16:32:27.723Z,12.50
2018-02-16T16:34:55.732Z,21.40
2018-02-16T16:37:23.759Z,16.75
2018-02-16T16:39:51.753Z,23.75
2018-02-16T16:42:19.811Z,23.00
2018-02-16T16:44:47.788Z,23.98
2018-02-16T16:47:15.821Z,15.73
2018-02-16T16:49:43.816Z,23.00
2018-02-16T16:52:11.836Z,16.33
2018-02-16T16:54:40.604Z,17.10
2018-02-16T16:57:08.604Z,17.40
2018-02-16T16:59:36.615Z,19.85
2018-02-16T17:02:04.618Z,18.30
2018-02-16T17:04:32.616Z,14.57
2018-02-16T17:07:00.613Z,18.85
2018-02-16T17:09:28.616Z,17.33
2018-02-16T17:11:57.408Z,21.08
2018-02-16T17:14:25.400Z,18.25
2018-02-16T17:16:54.196Z,21.25
2018-02-16T17:19:22.180Z,14.30
2018-02-16T17:21:50.207Z,15.23
2018-02-16T17:24:18.214Z,17.87
2018-02-16T17:26:46.212Z,16.80
2018-02-16T17:29:14.224Z,22.15
2018-02-16T17:31:42.988Z,22.25
2018-02-16T17:34:11.000Z,19.05
2018-02-16T17:36:39.783Z,20.05
2018-02-16T17:39:07.784Z,15.70
2018-02-16T17:41:35.786Z,16.42
2018-02-16T17:44:03.792Z,20.80
2018-02-16T17:46:31.802Z,20.95
2018-02-16T17:48:59.808Z,18.37
2018-02-16T17:51:27.804Z,17.33
2018-02-16T17:53:56.569Z,12.93
2018-02-16T17:56:24.572Z,21.92
2018-02-16T17:58:52.592Z,15.95
2018-02-16T18:01:20.602Z,24.15
2018-02-16T18:03:48.666Z,21.48
2018-02-16T18:06:16.654Z,23.67
2018-02-16T18:08:44.678Z,21.23
2018-02-16T18:11:12.690Z,22.67
2018-02-16T18:13:41.449Z,20.73
2018-02-16T18:16:09.461Z,21.83
2018-02-16T18:18:38.220Z,21.73
2018-02-16T18:21:06.230Z,19.65
2018-02-16T18:23:35.723Z,15.32
2018-02-16T18:26:03.739Z,21.10
2018-02-16T18:28:32.520Z,19.15
2018-02-16T18:31:00.520Z,20.67
2018-02-16T18:33:28.540Z,20.00
2018-02-16T18:35:56.543Z,16.40
2018-02-16T18:38:24.549Z,19.87
2018-02-16T18:40:52.568Z,16.00
2018-02-16T18:43:21.340Z,19.30
2018-02-16T18:45:49.362Z,23.35
2018-02-16T18:48:18.112Z,21.08
2018-02-16T18:50:46.116Z,15.27
2018-02-16T18:53:14.131Z,16.17
2018-02-16T18:55:42.883Z,16.92
2018-02-16T18:58:10.901Z,16.90
2018-02-16T19:00:39.648Z,14.50
2018-02-16T19:03:07.682Z,14.23
2018-02-16T19:05:36.461Z,19.80
2018-02-16T19:08:04.481Z,17.80
2018-02-16T19:10:32.480Z,13.73
2018-02-16T19:13:00.501Z,20.00
2018-02-16T19:15:28.484Z,18.87
2018-02-16T19:17:56.504Z,23.35
2018-02-16T19:20:24.514Z,17.42
2018-02-16T19:22:52.529Z,16.92
2018-02-16T19:25:20.524Z,21.23
2018-02-16T19:27:48.540Z,19.98
2018-02-16T19:30:16.540Z,20.35
2018-02-16T19:32:44.572Z,15.02
2018-02-16T19:35:12.596Z,15.05
2018-02-16T19:37:40.596Z,17.12
2018-02-16T19:40:08.617Z,14.85
2018-02-16T19:42:36.612Z,16.70
2018-02-16T19:45:04.615Z,14.57
2018-02-16T19:47:33.367Z,12.82
2018-02-16T19:50:01.377Z,14.63
2018-02-16T19:52:29.385Z,15.10
2018-02-16T19:54:57.384Z,13.18
2018-02-16T19:57:25.388Z,17.40
2018-02-16T19:59:53.444Z,18.50
2018-02-16T20:02:21.465Z,19.08
2018-02-16T20:04:49.456Z,22.50
2018-02-16T20:07:17.466Z,18.95
2018-02-16T20:09:46.244Z,15.57
2018-02-16T20:12:14.274Z,19.58
2018-02-16T20:14:42.256Z,16.62
2018-02-16T20:17:10.288Z,20.15
2018-02-16T20:19:38.301Z,22.23
2018-02-16T20:22:07.073Z,15.93
2018-02-16T20:24:35.084Z,11.98
2018-02-16T20:27:03.095Z,19.75
2018-02-16T20:29:31.117Z,17.58
2018-02-16T20:31:59.131Z,16.95
2018-02-16T20:34:27.120Z,22.90
2018-02-16T20:36:55.908Z,14.35
2018-02-16T20:39:24.735Z,18.25
2018-02-16T20:41:52.753Z,20.08
2018-02-16T20:44:20.774Z,18.62
2018-02-16T20:46:49.560Z,15.98
2018-02-16T20:49:17.704Z,18.27
2018-02-16T20:51:45.711Z,23.02
2018-02-16T20:54:13.727Z,19.98
2018-02-16T20:56:42.532Z,17.30
2018-02-16T20:59:11.304Z,22.15
2018-02-16T21:01:39.328Z,18.90
2018-02-16T21:04:08.090Z,19.15
2018-02-16T21:06:36.104Z,19.83
2018-02-16T21:09:04.894Z,18.60
2018-02-16T21:11:32.897Z,25.60
2018-02-16T21:14:01.672Z,21.83
2018-02-16T21:16:29.668Z,14.95
2018-02-16T21:18:58.443Z,17.98
2018-02-16T21:21:26.608Z,21.77
2018-02-16T21:23:54.629Z,28.45
2018-02-16T21:26:22.639Z,26.48
2018-02-16T21:28:50.643Z,16.73
2018-02-16T21:31:18.656Z,17.52
2018-02-16T21:33:46.662Z,23.52
2018-02-16T21:36:14.676Z,17.30
2018-02-16T21:38:42.686Z,16.85
2018-02-16T21:41:10.728Z,23.60
2018-02-16T21:43:39.495Z,18.37
2018-02-16T21:46:07.513Z,16.55
2018-02-16T21:48:36.280Z,27.23
2018-02-16T21:51:04.285Z,20.05
2018-02-16T21:53:33.073Z,21.75
2018-02-16T21:56:01.081Z,25.52
2018-02-16T21:58:29.900Z,23.38
2018-02-16T22:00:57.909Z,20.67
2018-02-16T22:03:25.916Z,20.65
2018-02-16T22:05:53.932Z,28.75
2018-02-16T22:08:22.696Z,27.58
2018-02-16T22:10:50.729Z,28.83
2018-02-16T22:13:18.716Z,28.27
2018-02-16T22:15:46.748Z,26.77
2018-02-16T22:18:14.748Z,27.35
2018-02-16T22:20:43.520Z,29.10
2018-02-16T22:23:11.521Z,23.25
2018-02-16T22:25:39.553Z,23.42
2018-02-16T22:28:07.572Z,21.55
2018-02-16T22:30:35.584Z,24.52
2018-02-16T22:33:04.364Z,26.35
2018-02-16T22:35:32.375Z,17.85
2018-02-16T22:38:01.139Z,24.55
2018-02-16T22:40:29.481Z,20.58
2018-02-16T22:42:57.477Z,19.83
2018-02-16T22:45:25.491Z,28.85
2018-02-16T22:47:57.510Z,22.77
2018-02-16T22:50:25.668Z,23.98
2018-02-16T22:52:53.692Z,21.83
2018-02-16T22:55:22.515Z,14.75
2018-02-16T22:57:50.539Z,19.50
2018-02-16T23:00:18.557Z,22.52
2018-02-16T23:02:46.596Z,22.67
2018-02-16T23:05:14.658Z,20.65
2018-02-16T23:07:43.385Z,23.10
2018-02-16T23:10:11.393Z,19.20
2018-02-16T23:12:40.172Z,20.75
2018-02-16T23:15:08.964Z,27.33
2018-02-16T23:17:36.976Z,22.20
2018-02-16T23:20:05.774Z,18.70
2018-02-16T23:22:34.548Z,15.95
2018-02-16T23:25:02.558Z,18.83
2018-02-16T23:27:31.340Z,19.58
2018-02-16T23:29:59.344Z,20.80
2018-02-16T23:32:28.250Z,20.15
2018-02-16T23:34:57.036Z,19.52
2018-02-16T23:37:25.029Z,17.25
2018-02-16T23:39:53.808Z,15.70
2018-02-16T23:42:21.808Z,17.27
2018-02-16T23:44:50.553Z,20.62
2018-02-16T23:47:18.583Z,24.48
2018-02-16T23:49:46.588Z,26.52
2018-02-16T23:52:14.593Z,19.58
2018-02-16T23:54:42.593Z,13.95
2018-02-16T23:57:11.374Z,16.23
2018-02-16T23:59:39.383Z,21.40
